createdAt,value
2019-01-04T00:01:26.858Z,82.90
2019-01-04T00:03:56.140Z,83.40
2019-01-04T00:06:25.602Z,84.10
2019-01-04T00:08:55.049Z,83.60
2019-01-04T00:11:24.611Z,83.80
2019-01-04T00:13:54.000Z,84.20
2019-01-04T00:16:23.327Z,84.40
2019-01-04T00:18:52.736Z,83.50
2019-01-04T00:21:22.155Z,84.00
2019-01-04T00:23:51.599Z,84.20
2019-01-04T00:26:21.329Z,84.30
2019-01-04T00:28:50.626Z,84.20
2019-01-04T00:31:19.945Z,84.30
2019-01-04T00:33:49.314Z,83.70
2019-01-04T00:36:18.702Z,84.10
2019-01-04T00:38:47.972Z,84.30
2019-01-04T00:41:17.355Z,84.50
2019-01-04T00:43:46.602Z,84.50
2019-01-04T00:46:15.985Z,84.40
2019-01-04T00:48:45.458Z,83.90
2019-01-04T00:51:14.743Z,84.20
2019-01-04T00:53:44.317Z,83.70
2019-01-04T00:56:50.341Z,83.60
2019-01-04T01:00:09.558Z,83.40
2019-01-04T01:03:15.104Z,83.00
2019-01-04T01:06:30.690Z,83.30
2019-01-04T01:09:37.009Z,84.20
2019-01-04T01:12:25.330Z,83.90
2019-01-04T01:15:30.937Z,84.30
2019-01-04T01:18:43.420Z,85.30
2019-01-04T01:21:42.173Z,84.60
2019-01-04T01:25:00.860Z,85.00
2019-01-04T01:28:05.268Z,84.20
2019-01-04T01:31:15.212Z,84.80
2019-01-04T01:34:37.746Z,85.10
2019-01-04T01:37:56.206Z,85.70
2019-01-04T01:41:02.816Z,85.40
2019-01-04T01:44:12.316Z,85.70
2019-01-04T01:46:46.474Z,86.00
2019-01-04T01:49:55.946Z,85.90
2019-01-04T01:52:35.735Z,86.20
2019-01-04T01:55:05.121Z,86.40
2019-01-04T01:57:34.595Z,87.00
2019-01-04T02:00:03.924Z,86.70
2019-01-04T02:02:33.321Z,86.50
2019-01-04T02:05:02.575Z,86.50
2019-01-04T02:07:31.967Z,86.00
2019-01-04T02:10:01.237Z,86.00
2019-01-04T02:12:30.704Z,86.20
2019-01-04T02:15:00.180Z,86.50
2019-01-04T02:17:29.487Z,85.60
2019-01-04T02:19:58.863Z,85.30
2019-01-04T02:22:28.180Z,85.10
2019-01-04T02:24:57.664Z,85.00
2019-01-04T02:27:27.374Z,85.60
2019-01-04T02:29:56.791Z,86.30
2019-01-04T02:32:26.226Z,86.70
2019-01-04T02:34:55.607Z,86.20
2019-01-04T02:37:24.869Z,86.40
2019-01-04T02:39:54.758Z,86.00
2019-01-04T02:42:24.144Z,85.70
2019-01-04T02:44:53.432Z,85.40
2019-01-04T02:47:22.922Z,85.60
2019-01-04T02:49:52.208Z,85.90
2019-01-04T02:52:21.675Z,85.90
2019-01-04T02:54:52.317Z,85.60
2019-01-04T02:57:24.736Z,86.00
2019-01-04T02:59:54.181Z,85.80
2019-01-04T03:02:23.473Z,86.20
2019-01-04T03:04:53.280Z,86.20
2019-01-04T03:07:22.693Z,85.80
2019-01-04T03:09:52.032Z,85.30
2019-01-04T03:12:21.491Z,85.60
2019-01-04T03:14:50.846Z,85.00
2019-01-04T03:17:20.278Z,84.50
2019-01-04T03:19:49.642Z,84.60
2019-01-04T03:22:18.988Z,84.00
2019-01-04T03:24:48.326Z,84.00
2019-01-04T03:27:17.610Z,84.20
2019-01-04T03:29:46.992Z,85.00
2019-01-04T03:32:16.248Z,85.00
2019-01-04T03:34:47.205Z,84.80
2019-01-04T03:37:16.448Z,84.40
2019-01-04T03:39:45.863Z,84.80
2019-01-04T03:42:15.157Z,85.00
2019-01-04T03:44:44.592Z,85.90
2019-01-04T03:47:13.922Z,86.10
2019-01-04T03:49:43.236Z,86.50
2019-01-04T03:52:12.559Z,84.60
2019-01-04T03:54:42.094Z,84.70
2019-01-04T03:57:11.369Z,84.50
2019-01-04T03:59:41.149Z,83.80
2019-01-04T04:02:10.480Z,84.30
2019-01-04T04:04:39.748Z,83.90
2019-01-04T04:07:09.140Z,84.20
2019-01-04T04:09:38.445Z,85.00
2019-01-04T04:12:07.868Z,85.40
2019-01-04T04:14:37.291Z,85.80
2019-01-04T04:17:06.674Z,85.90
2019-01-04T04:19:35.955Z,86.20
2019-01-04T04:22:05.228Z,85.30
2019-01-04T04:24:34.747Z,84.90
2019-01-04T04:27:04.049Z,85.40
2019-01-04T04:29:33.408Z,86.10
2019-01-04T04:32:02.662Z,86.70
2019-01-04T04:34:32.136Z,87.60
2019-01-04T04:37:01.485Z,88.50
2019-01-04T04:39:30.978Z,88.60
2019-01-04T04:42:00.265Z,88.20
2019-01-04T04:44:29.716Z,87.80
2019-01-04T04:46:58.982Z,86.40
2019-01-04T04:49:28.429Z,87.00
2019-01-04T04:51:57.931Z,85.10
2019-01-04T04:54:27.770Z,85.40
2019-01-04T04:56:57.172Z,85.10
2019-01-04T04:59:26.511Z,84.50
2019-01-04T05:01:56.090Z,84.30
2019-01-04T05:04:25.905Z,84.60
2019-01-04T05:06:55.238Z,84.70
2019-01-04T05:09:24.877Z,84.70
2019-01-04T05:11:54.319Z,83.80
2019-01-04T05:14:23.689Z,84.60
2019-01-04T05:16:53.143Z,85.10
2019-01-04T05:19:22.413Z,85.50
2019-01-04T05:21:51.853Z,85.60
2019-01-04T05:24:21.285Z,85.30
2019-01-04T05:26:50.593Z,85.50
2019-01-04T05:29:20.081Z,85.60
2019-01-04T05:31:49.573Z,85.10
2019-01-04T05:34:19.273Z,85.00
2019-01-04T05:36:48.918Z,84.70
2019-01-04T05:39:18.166Z,84.70
2019-01-04T05:41:47.653Z,84.50
2019-01-04T05:44:16.992Z,83.40
2019-01-04T05:46:46.361Z,83.40
2019-01-04T05:49:15.809Z,83.30
2019-01-04T05:51:45.095Z,82.40
2019-01-04T05:54:15.608Z,82.30
2019-01-04T05:56:44.933Z,82.40
2019-01-04T05:59:14.639Z,83.10
2019-01-04T06:01:43.971Z,83.30
2019-01-04T06:04:13.393Z,83.50
2019-01-04T06:06:42.781Z,83.50
2019-01-04T06:09:12.193Z,83.50
2019-01-04T06:11:41.460Z,83.40
2019-01-04T06:14:10.823Z,83.90
2019-01-04T06:16:40.085Z,84.60
2019-01-04T06:19:09.457Z,85.20
2019-01-04T06:21:38.736Z,85.60
2019-01-04T06:24:08.153Z,86.10
2019-01-04T06:26:37.544Z,86.00
2019-01-04T06:29:06.824Z,86.00
2019-01-04T06:31:36.277Z,85.20
2019-01-04T06:34:05.592Z,82.40
2019-01-04T06:36:35.114Z,82.50
2019-01-04T06:39:06.575Z,82.30
2019-01-04T06:41:35.805Z,81.40
2019-01-04T06:44:05.276Z,81.60
2019-01-04T06:46:34.737Z,81.60
2019-01-04T06:49:03.981Z,81.30
2019-01-04T06:51:33.242Z,81.50
2019-01-04T06:54:02.745Z,81.80
2019-01-04T06:56:32.030Z,81.70
2019-01-04T06:59:01.663Z,82.00
2019-01-04T07:01:33.126Z,82.10
2019-01-04T07:04:02.434Z,81.90
2019-01-04T07:06:31.763Z,82.50
2019-01-04T07:09:01.122Z,82.10
2019-01-04T07:11:30.529Z,83.00
2019-01-04T07:13:59.801Z,82.80
2019-01-04T07:16:29.290Z,82.60
2019-01-04T07:18:58.654Z,82.60
2019-01-04T07:21:28.414Z,83.40
2019-01-04T07:23:57.671Z,82.50
2019-01-04T07:26:27.149Z,82.70
2019-01-04T07:28:56.706Z,83.10
2019-01-04T07:31:26.063Z,83.30
2019-01-04T07:33:55.427Z,83.40
2019-01-04T07:36:24.901Z,83.90
2019-01-04T07:38:54.549Z,83.40
2019-01-04T07:41:24.070Z,83.10
2019-01-04T07:43:53.376Z,82.60
2019-01-04T07:46:22.716Z,81.30
2019-01-04T07:48:52.911Z,80.50
2019-01-04T07:51:22.180Z,79.20
2019-01-04T07:53:53.781Z,79.10
2019-01-04T07:56:25.264Z,79.20
2019-01-04T07:58:54.844Z,78.10
2019-01-04T08:01:24.698Z,77.60
2019-01-04T08:03:57.768Z,76.80
2019-01-04T08:06:28.258Z,75.80
2019-01-04T08:08:57.611Z,75.10
2019-01-04T08:11:27.141Z,75.60
2019-01-04T08:13:56.526Z,75.70
2019-01-04T08:16:25.849Z,76.00
2019-01-04T08:18:55.406Z,76.30
2019-01-04T08:21:24.689Z,76.70
2019-01-04T08:23:54.156Z,76.30
2019-01-04T08:26:23.518Z,76.70
2019-01-04T08:28:52.915Z,76.90
2019-01-04T08:31:22.320Z,78.00
2019-01-04T08:33:52.270Z,77.00
2019-01-04T08:36:21.618Z,77.10
2019-01-04T08:38:57.055Z,78.00
2019-01-04T08:41:26.502Z,78.50
2019-01-04T08:43:55.957Z,79.30
2019-01-04T08:46:25.217Z,80.00
2019-01-04T08:48:54.635Z,79.80
2019-01-04T08:51:23.985Z,80.90
2019-01-04T08:53:58.084Z,80.60
2019-01-04T08:56:29.277Z,80.90
2019-01-04T08:58:58.652Z,79.70
2019-01-04T09:01:27.990Z,78.10
2019-01-04T09:03:58.599Z,78.10
2019-01-04T09:06:28.058Z,77.70
2019-01-04T09:08:57.496Z,77.20
2019-01-04T09:11:26.926Z,77.20
2019-01-04T09:13:56.504Z,76.80
2019-01-04T09:16:25.765Z,76.10
2019-01-04T09:18:55.194Z,74.70
2019-01-04T09:21:24.545Z,73.80
2019-01-04T09:23:53.979Z,72.90
2019-01-04T09:26:23.328Z,72.80
2019-01-04T09:28:52.751Z,72.60
2019-01-04T09:31:22.330Z,72.90
2019-01-04T09:33:51.733Z,74.30
2019-01-04T09:36:21.117Z,74.70
2019-01-04T09:38:51.971Z,73.70
2019-01-04T09:41:32.596Z,75.10
2019-01-04T09:44:02.264Z,73.50
2019-01-04T09:46:31.719Z,73.40
2019-01-04T09:49:01.164Z,73.90
2019-01-04T09:51:30.515Z,75.70
2019-01-04T09:53:59.981Z,75.50
2019-01-04T09:56:29.338Z,73.90
2019-01-04T09:58:58.910Z,73.40
2019-01-04T10:01:28.184Z,73.40
2019-01-04T10:03:58.680Z,72.90
2019-01-04T10:06:28.261Z,71.10
2019-01-04T10:08:57.775Z,70.10
2019-01-04T10:11:27.224Z,69.50
2019-01-04T10:13:56.833Z,70.10
2019-01-04T10:16:26.136Z,71.40
2019-01-04T10:18:56.693Z,70.30
2019-01-04T10:21:26.215Z,70.90
2019-01-04T10:23:55.649Z,71.40
2019-01-04T10:26:24.909Z,72.30
2019-01-04T10:28:54.377Z,72.00
2019-01-04T10:31:23.669Z,74.80
2019-01-04T10:33:53.038Z,74.50
2019-01-04T10:36:23.065Z,72.70
2019-01-04T10:38:52.770Z,74.00
2019-01-04T10:41:22.641Z,74.20
2019-01-04T10:43:58.265Z,75.70
2019-01-04T10:46:27.533Z,74.50
2019-01-04T10:48:57.118Z,75.50
2019-01-04T10:51:26.404Z,76.00
2019-01-04T10:53:55.722Z,74.50
2019-01-04T10:56:25.308Z,75.20
2019-01-04T10:58:57.921Z,74.60
2019-01-04T11:01:27.326Z,74.20
2019-01-04T11:03:56.789Z,74.00
2019-01-04T11:06:26.137Z,72.20
2019-01-04T11:08:55.509Z,73.70
2019-01-04T11:11:24.856Z,72.50
2019-01-04T11:13:54.372Z,72.80
2019-01-04T11:16:23.865Z,73.60
2019-01-04T11:18:53.301Z,70.50
2019-01-04T11:21:24.935Z,70.20
2019-01-04T11:24:45.262Z,70.70
2019-01-04T11:27:19.963Z,70.30
2019-01-04T11:30:36.839Z,69.20
2019-01-04T11:33:14.069Z,68.80
2019-01-04T11:36:48.806Z,68.70
2019-01-04T11:39:54.843Z,67.40
2019-01-04T11:43:09.091Z,68.00
2019-01-04T11:46:11.270Z,70.50
2019-01-04T11:49:36.580Z,70.10
2019-01-04T11:52:35.982Z,69.60
2019-01-04T11:55:07.884Z,69.00
2019-01-04T11:58:14.965Z,71.80
2019-01-04T12:00:44.370Z,71.40
2019-01-04T12:03:13.836Z,69.90
2019-01-04T12:06:04.463Z,70.20
2019-01-04T12:08:34.040Z,70.60
2019-01-04T12:11:04.062Z,72.00
2019-01-04T12:13:42.995Z,72.50
2019-01-04T12:16:20.525Z,72.90
2019-01-04T12:18:59.797Z,73.60
2019-01-04T12:21:38.939Z,74.50
2019-01-04T12:24:28.356Z,74.50
2019-01-04T12:26:58.064Z,75.10
2019-01-04T12:29:39.776Z,75.70
2019-01-04T12:32:11.417Z,76.20
2019-01-04T12:34:40.701Z,76.50
2019-01-04T12:37:10.208Z,75.40
2019-01-04T12:39:39.616Z,76.00
2019-01-04T12:42:08.882Z,76.60
2019-01-04T12:44:39.301Z,77.00
2019-01-04T12:47:09.277Z,77.30
2019-01-04T12:49:38.683Z,77.70
2019-01-04T12:52:08.025Z,77.40
2019-01-04T12:54:37.384Z,77.00
2019-01-04T12:57:17.248Z,76.50
2019-01-04T12:59:46.912Z,76.20
2019-01-04T13:02:18.450Z,76.90
2019-01-04T13:04:47.792Z,76.70
2019-01-04T13:07:18.265Z,77.50
2019-01-04T13:09:47.565Z,77.20
2019-01-04T13:12:17.002Z,77.60
2019-01-04T13:14:46.554Z,78.90
2019-01-04T13:17:15.922Z,80.20
2019-01-04T13:19:45.421Z,82.50
2019-01-04T13:22:14.807Z,83.30
2019-01-04T13:24:44.244Z,85.00
2019-01-04T13:27:13.498Z,86.50
2019-01-04T13:29:43.005Z,87.00
2019-01-04T13:32:12.638Z,87.40
2019-01-04T13:34:42.740Z,87.90
2019-01-04T13:37:13.389Z,88.90
2019-01-04T13:39:42.832Z,89.80
2019-01-04T13:42:12.172Z,89.30
2019-01-04T13:44:43.232Z,89.80
2019-01-04T13:47:12.540Z,90.30
2019-01-04T13:49:42.033Z,91.20
2019-01-04T13:52:11.349Z,91.60
2019-01-04T13:54:40.707Z,91.70
2019-01-04T13:57:09.988Z,91.60
2019-01-04T13:59:40.786Z,91.80
2019-01-04T14:02:10.129Z,92.30
2019-01-04T14:04:39.576Z,92.40
2019-01-04T14:07:08.866Z,92.50
2019-01-04T14:09:38.385Z,92.60
2019-01-04T14:12:08.949Z,92.70
2019-01-04T14:14:38.738Z,92.80
2019-01-04T14:17:08.050Z,93.00
2019-01-04T14:19:37.535Z,93.20
2019-01-04T14:22:06.992Z,93.40
2019-01-04T14:24:36.914Z,93.40
2019-01-04T14:27:06.438Z,93.50
2019-01-04T14:29:35.828Z,93.80
2019-01-04T14:32:05.167Z,93.80
2019-01-04T14:34:34.616Z,94.00
2019-01-04T14:37:04.535Z,94.00
2019-01-04T14:39:33.881Z,94.20
2019-01-04T14:42:03.380Z,94.20
2019-01-04T14:44:32.664Z,94.30
2019-01-04T14:47:02.083Z,94.60
2019-01-04T14:49:31.370Z,94.80
2019-01-04T14:52:00.817Z,94.80
2019-01-04T14:54:30.159Z,95.20
2019-01-04T14:56:59.459Z,95.10
2019-01-04T14:59:29.072Z,95.10
2019-01-04T15:01:58.365Z,95.20
2019-01-04T15:04:27.879Z,95.30
2019-01-04T15:06:57.253Z,95.30
2019-01-04T15:09:26.658Z,95.50
2019-01-04T15:11:56.672Z,95.60
2019-01-04T15:14:26.039Z,95.60
2019-01-04T15:16:55.479Z,95.70
2019-01-04T15:19:24.848Z,95.80
2019-01-04T15:21:54.356Z,95.70
2019-01-04T15:24:24.034Z,95.70
2019-01-04T15:26:53.869Z,95.70
2019-01-04T15:29:24.148Z,95.70
2019-01-04T15:31:53.638Z,95.80
2019-01-04T15:34:23.065Z,95.90
2019-01-04T15:36:52.522Z,96.00
2019-01-04T15:39:21.878Z,95.90
2019-01-04T15:41:51.574Z,96.00
2019-01-04T15:44:20.958Z,96.10
2019-01-04T15:46:50.710Z,96.20
2019-01-04T15:49:20.087Z,96.40
2019-01-04T15:51:49.736Z,96.20
2019-01-04T15:54:19.097Z,96.30
2019-01-04T15:56:48.456Z,96.50
2019-01-04T15:59:17.925Z,96.40
2019-01-04T16:01:47.264Z,96.30
2019-01-04T16:04:17.011Z,96.40
2019-01-04T16:06:46.341Z,96.50
2019-01-04T16:09:15.990Z,96.50
2019-01-04T16:11:45.414Z,96.60
2019-01-04T16:14:15.152Z,96.70
2019-01-04T16:16:44.532Z,96.70
2019-01-04T16:19:15.801Z,96.70
2019-01-04T16:21:48.709Z,96.90
2019-01-04T16:24:19.607Z,96.70
2019-01-04T16:26:49.245Z,96.70
2019-01-04T16:29:24.054Z,96.80
2019-01-04T16:32:00.935Z,96.90
2019-01-04T16:34:30.569Z,96.90
2019-01-04T16:37:00.139Z,97.00
2019-01-04T16:39:29.667Z,97.00
2019-01-04T16:42:00.551Z,96.90
2019-01-04T16:44:41.298Z,97.00
2019-01-04T16:47:18.071Z,97.10
2019-01-04T16:49:47.698Z,97.10
2019-01-04T16:52:19.743Z,97.20
2019-01-04T16:54:55.664Z,97.10
2019-01-04T16:57:30.492Z,97.00
2019-01-04T17:00:03.363Z,97.00
2019-01-04T17:02:40.093Z,96.90
2019-01-04T17:05:10.946Z,97.00
2019-01-04T17:07:41.081Z,96.90
2019-01-04T17:10:14.671Z,96.90
2019-01-04T17:12:47.242Z,96.90
2019-01-04T17:15:22.951Z,96.90
2019-01-04T17:17:54.370Z,97.10
2019-01-04T17:20:24.720Z,97.00
2019-01-04T17:22:54.171Z,97.10
2019-01-04T17:25:24.028Z,97.00
2019-01-04T17:27:54.008Z,96.90
2019-01-04T17:30:26.190Z,97.00
2019-01-04T17:32:55.674Z,97.00
2019-01-04T17:35:25.094Z,96.90
2019-01-04T17:37:55.349Z,96.80
2019-01-04T17:40:25.610Z,96.70
2019-01-04T17:42:55.770Z,96.70
2019-01-04T17:45:26.393Z,96.80
2019-01-04T17:47:55.940Z,96.90
2019-01-04T17:50:26.035Z,96.80
2019-01-04T17:52:55.938Z,96.70
2019-01-04T17:55:29.799Z,96.80
2019-01-04T17:58:00.398Z,96.70
2019-01-04T18:00:32.458Z,97.00
2019-01-04T18:03:04.419Z,96.60
2019-01-04T18:05:34.146Z,96.70
2019-01-04T18:08:04.123Z,96.70
2019-01-04T18:10:35.411Z,96.70
2019-01-04T18:13:05.931Z,96.70
2019-01-04T18:15:36.294Z,96.80
2019-01-04T18:18:09.120Z,96.70
2019-01-04T18:20:38.945Z,96.80
2019-01-04T18:23:10.995Z,97.00
2019-01-04T18:25:40.641Z,96.90
2019-01-04T18:28:13.852Z,97.00
2019-01-04T18:30:43.259Z,97.10
2019-01-04T18:33:12.805Z,97.00
2019-01-04T18:35:42.199Z,96.90
2019-01-04T18:38:11.715Z,96.80
2019-01-04T18:40:41.251Z,96.80
2019-01-04T18:43:11.447Z,96.90
2019-01-04T18:45:41.411Z,96.90
2019-01-04T18:48:11.523Z,96.80
2019-01-04T18:50:42.179Z,96.90
2019-01-04T18:53:11.973Z,96.80
2019-01-04T18:55:42.030Z,97.10
2019-01-04T18:58:11.489Z,97.10
2019-01-04T19:00:41.326Z,97.00
2019-01-04T19:03:11.307Z,97.10
2019-01-04T19:05:40.981Z,97.00
2019-01-04T19:08:10.383Z,96.90
2019-01-04T19:10:40.513Z,96.80
2019-01-04T19:13:10.060Z,96.70
2019-01-04T19:15:39.863Z,96.70
2019-01-04T19:18:09.330Z,96.70
2019-01-04T19:20:38.694Z,96.70
2019-01-04T19:23:07.995Z,96.80
2019-01-04T19:25:37.408Z,96.80
2019-01-04T19:28:06.783Z,96.90
2019-01-04T19:30:37.305Z,97.00
2019-01-04T19:33:07.013Z,97.00
2019-01-04T19:35:36.478Z,97.00
2019-01-04T19:38:05.951Z,96.90
2019-01-04T19:40:35.268Z,96.90
2019-01-04T19:43:04.734Z,96.90
2019-01-04T19:45:34.044Z,96.80
2019-01-04T19:48:03.857Z,96.80
2019-01-04T19:50:33.168Z,96.80
2019-01-04T19:53:02.633Z,97.00
2019-01-04T19:55:31.940Z,97.10
2019-01-04T19:58:01.330Z,97.10
2019-01-04T20:00:30.665Z,97.00
2019-01-04T20:03:00.234Z,97.10
2019-01-04T20:06:31.571Z,97.20
2019-01-04T20:10:06.516Z,97.10
2019-01-04T20:13:29.818Z,97.20
2019-01-04T20:16:32.028Z,97.30
2019-01-04T20:19:21.333Z,97.30
2019-01-04T20:22:06.402Z,97.60
2019-01-04T20:25:13.473Z,97.30
2019-01-04T20:28:00.113Z,97.50
2019-01-04T20:30:47.521Z,97.60
2019-01-04T20:33:44.884Z,97.80
2019-01-04T20:36:39.227Z,97.80
2019-01-04T20:39:30.789Z,97.90
2019-01-04T20:42:37.574Z,98.00
2019-01-04T20:45:40.978Z,98.10
2019-01-04T20:48:27.917Z,98.20
2019-01-04T20:51:22.088Z,98.10
2019-01-04T20:54:22.198Z,98.20
2019-01-04T20:57:10.434Z,98.30
2019-01-04T20:59:53.861Z,98.20
2019-01-04T21:02:51.302Z,98.30
2019-01-04T21:05:47.390Z,98.50
2019-01-04T21:08:45.054Z,98.30
2019-01-04T21:11:33.510Z,98.30
2019-01-04T21:14:27.822Z,98.30
2019-01-04T21:17:31.248Z,98.20
2019-01-04T21:20:18.759Z,98.30
2019-01-04T21:23:12.446Z,98.30
2019-01-04T21:25:59.688Z,98.30
2019-01-04T21:28:50.855Z,98.30
2019-01-04T21:31:57.439Z,98.20
2019-01-04T21:34:44.471Z,98.10
2019-01-04T21:37:51.344Z,98.10
2019-01-04T21:40:42.327Z,97.90
2019-01-04T21:43:47.067Z,97.80
2019-01-04T21:46:33.961Z,97.70
2019-01-04T21:49:25.256Z,97.80
2019-01-04T21:52:32.161Z,97.80
2019-01-04T21:55:23.523Z,97.80
2019-01-04T21:58:11.291Z,97.80
2019-01-04T22:00:59.784Z,97.70
2019-01-04T22:03:49.378Z,97.60
2019-01-04T22:06:46.863Z,97.50
2019-01-04T22:09:53.653Z,97.50
2019-01-04T22:12:45.163Z,97.70
2019-01-04T22:15:45.606Z,97.70
2019-01-04T22:18:51.422Z,97.70
2019-01-04T22:21:43.508Z,97.70
2019-01-04T22:24:30.788Z,97.70
2019-01-04T22:27:17.666Z,97.50
2019-01-04T22:30:18.281Z,97.50
2019-01-04T22:33:21.655Z,97.60
2019-01-04T22:36:25.380Z,97.70
2019-01-04T22:39:25.894Z,97.70
2019-01-04T22:42:23.444Z,97.60
2019-01-04T22:45:14.756Z,97.70
2019-01-04T22:48:02.122Z,97.60
2019-01-04T22:50:56.731Z,97.70
2019-01-04T22:53:43.733Z,97.70
2019-01-04T22:56:44.539Z,97.80
2019-01-04T22:59:31.609Z,97.70
2019-01-04T23:02:20.830Z,97.70
2019-01-04T23:05:08.169Z,97.80
2019-01-04T23:07:56.746Z,97.60
2019-01-04T23:10:45.073Z,97.50
2019-01-04T23:13:23.859Z,97.50
2019-01-04T23:16:11.106Z,97.20
2019-01-04T23:18:58.563Z,97.10
2019-01-04T23:22:20.933Z,97.00
2019-01-04T23:25:07.819Z,97.10
2019-01-04T23:27:54.997Z,97.20
2019-01-04T23:30:49.563Z,97.00
2019-01-04T23:33:42.292Z,97.00
2019-01-04T23:36:29.578Z,97.20
2019-01-04T23:39:16.585Z,97.20
2019-01-04T23:42:04.073Z,97.60
2019-01-04T23:44:51.348Z,97.30
2019-01-04T23:47:53.636Z,97.30
2019-01-04T23:50:41.915Z,97.30
2019-01-04T23:53:29.513Z,97.40
2019-01-04T23:56:16.101Z,97.40
2019-01-04T23:59:04.293Z,97.50
